Pagrindinis puslapis
METAR-TAF:

METAR-TAF

Oro uostai :

New Braunfels Municipal Airport

New Braunfels, Teksasas, Jungtinės Amerikos Valstijos

platuma: 29-42-31N, ilguma: 098-02-43W, Aukštis: 197 m

Dabartinis oras

Ataskaita buvo paskelbta 30 minutes, ne 09:51 UTC
Vėjas 5 kt iš Šiaurės/Šiaurės Rytų
Temperatūra 22°C
Drėgmė 78%
Slėgis 1017 hPa
Matomumas: 16.1 km
Giedras dangus

METAR: KBAZ 290951Z AUTO 03005KT 10SM CLR 22/18 A3003 RMK AO2 SLP161 T02170183

Laikas: 05:21 (10:21 UTC)


TAF: trūkstamas

Orai ataskaitas ir orų prognozės (METAR, TAF).

turimą stotys yra geltonos ir raudonos taškus žemėlapyje.

Perkelti pele per norėdami pamatyti stoties vardą.

Tada spustelėkite, norėdami matyti oro stebėjimo ir prognozės.

Norėdami pakeisti žemėlapį: spustelėkite ant žalios mygtukų su juodo kryžiaus žemyn,; žalią mygtuką su brūkšneliu, jei norite nutolinti; arba žalių rodyklių gretimoms žemėlapius.


METAR-TAF: